Flight Track Log - Related Links

Times and Time Zones

All times are in EDT time to prevent confusion due to time zone crossing. See the CDG4711 flight status page for this flight to view local times or setup timezone preferences in your user account.

Time Position Orientation Groundspeed Altitude Reporting Facility
EDT Latitude Longitude Course Direction KTS MPH feet Rate Location/Type
Mon 07:43:00 PM 35.4978 120.1415 194° South  Level Estimated
Mon 07:44:00 PM 35.4124 120.1159 194° South  Level Estimated
Mon 07:45:00 PM 35.3270 120.0903 194° South  Level Estimated
Mon 07:46:00 PM 35.2416 120.0648 194° South  Level Estimated
Mon 07:47:00 PM 35.1562 120.0394 194° South  Level Estimated
Mon 07:48:00 PM 35.0708 120.0140 194° South  Level Estimated
Mon 07:49:00 PM 34.9854 119.9887 194° South  Level Estimated
Mon 07:50:00 PM 34.9000 119.9634 194° South  Level Estimated
Mon 07:51:00 PM 34.8145 119.9382 194° South  Level Estimated
Mon 07:52:00 PM 34.7291 119.9130 194° South  Level Estimated
Mon 07:53:00 PM 34.6437 119.8878 194° South  Level Estimated
Mon 07:54:00 PM 34.5582 119.8628 194° South  Level Estimated
Mon 07:55:00 PM 34.4728 119.8378 194° South  Level Estimated
Mon 07:56:00 PM 34.3873 119.8128 194° South  Level Estimated
Mon 07:57:00 PM 34.3019 119.7879 194° South  Level Estimated
Mon 07:58:00 PM 34.2164 119.7630 194° South  Level Estimated
Mon 07:59:00 PM 34.1309 119.7382 194° South  Level Estimated
Mon 08:00:00 PM 34.0454 119.7134 194° South  Level Estimated
Mon 08:01:00 PM 33.9600 119.6887 193° South  Level Estimated
Mon 08:02:00 PM 33.8745 119.6640 193° South  Level Estimated
Mon 08:03:00 PM 33.7890 119.6394 193° South  Level Estimated
Mon 08:04:00 PM 33.7035 119.6148 193° South  Level Estimated
Mon 08:05:00 PM 33.6180 119.5903 193° South  Level Estimated
Mon 08:06:00 PM 33.5325 119.5658 193° South  Level Estimated
Mon 08:07:00 PM 33.4470 119.5414 193° South  Level Estimated
Mon 08:08:00 PM 33.3615 119.5170 193° South  Level Estimated
Mon 08:09:00 PM 33.2760 119.4927 193° South  Level Estimated
Mon 08:10:00 PM 33.1904 119.4684 193° South  Level Estimated
Mon 08:11:00 PM 33.1049 119.4442 193° South  Level Estimated
Mon 08:12:00 PM 33.0194 119.4200 193° South  Level Estimated
Mon 08:13:00 PM 32.9338 119.3958 193° South  Level Estimated
Mon 08:14:00 PM 32.8483 119.3717 193° South  Level Estimated
Mon 08:15:00 PM 32.7627 119.3477 193° South  Level Estimated
Mon 08:16:00 PM 32.6772 119.3237 193° South  Level Estimated
Mon 08:17:00 PM 32.5916 119.2997 193° South  Level Estimated
Mon 08:18:00 PM 32.5061 119.2758 193° South  Level Estimated
Mon 08:19:00 PM 32.4205 119.2519 193° South  Level Estimated
Mon 08:20:00 PM 32.3349 119.2281 193° South  Level Estimated
Mon 08:21:00 PM 32.2494 119.2043 193° South  Level Estimated
Mon 08:22:00 PM 32.1638 119.1806 193° South  Level Estimated
Mon 08:23:00 PM 32.0782 119.1569 193° South  Level Estimated
Mon 08:24:00 PM 31.9926 119.1333 193° South  Level Estimated
Mon 08:25:00 PM 31.9070 119.1097 193° South  Level Estimated
Mon 08:26:00 PM 31.8214 119.0861 193° South  Level Estimated
Mon 08:27:00 PM 31.7358 119.0626 193° South  Level Estimated
Mon 08:28:00 PM 31.6502 119.0391 193° South  Level Estimated
Mon 08:29:00 PM 31.5646 119.0157 193° South  Level Estimated
Mon 08:30:00 PM 31.4790 118.9923 193° South  Level Estimated
Mon 08:31:00 PM 31.3934 118.9690 193° South  Level Estimated
Mon 08:32:00 PM 31.3078 118.9457 193° South  Level Estimated
Mon 08:33:00 PM 31.2221 118.9225 193° South  Level Estimated
Mon 08:34:00 PM 31.1365 118.8992 193° South  Level Estimated
Mon 08:35:00 PM 31.0509 118.8761 193° South  Level Estimated
Mon 08:36:00 PM 30.9652 118.8530 193° South  Level Estimated
Mon 08:37:00 PM 30.8796 118.8299 193° South  Level Estimated
Mon 08:38:00 PM 30.7939 118.8068 193° South  Level Estimated
Mon 08:39:00 PM 30.7083 118.7838 193° South  Level Estimated
Mon 08:40:00 PM 30.6226 118.7608 193° South  Level Estimated
Mon 08:41:00 PM 30.5370 118.7379 193° South  Level Estimated
Mon 08:42:00 PM 30.4513 118.7150 193° South  Level Estimated
Mon 08:43:00 PM 30.3657 118.6922 193° South  Level Estimated
Mon 08:44:00 PM 30.2800 118.6694 193° South  Level Estimated
Mon 08:45:00 PM 30.1943 118.6467 193° South  Level Estimated
Mon 08:46:00 PM 30.1086 118.6239 193° South  Level Estimated
Mon 08:47:00 PM 30.0229 118.6012 193° South  Level Estimated
Mon 08:48:00 PM 29.9373 118.5786 193° South  Level Estimated
Mon 08:49:00 PM 29.8516 118.5560 193° South  Level Estimated
Mon 08:50:00 PM 29.7659 118.5334 193° South  Level Estimated
Mon 08:51:00 PM 29.6802 118.5109 193° South  Level Estimated
Mon 08:52:00 PM 29.5945 118.4884 193° South  Level Estimated
Mon 08:53:00 PM 29.5088 118.4660 193° South  Level Estimated
Mon 08:54:00 PM 29.4231 118.4436 193° South  Level Estimated
Mon 08:55:00 PM 29.3374 118.4212 193° South  Level Estimated
Mon 08:56:00 PM 29.2516 118.3988 193° South  Level Estimated
Mon 08:57:00 PM 29.1659 118.3765 193° South  Level Estimated
Mon 08:58:00 PM 29.0802 118.3543 193° South  Level Estimated
Mon 08:59:00 PM 28.9945 118.3320 193° South  Level Estimated
Mon 09:00:00 PM 28.9087 118.3099 193° South  Level Estimated
Mon 09:01:00 PM 28.8230 118.2877 193° South  Level Estimated
Mon 09:02:00 PM 28.7373 118.2656 193° South  Level Estimated
Mon 09:03:00 PM 28.6515 118.2435 193° South  Level Estimated
Mon 09:04:00 PM 28.5658 118.2215 193° South  Level Estimated
Mon 09:05:00 PM 28.4800 118.1994 193° South  Level Estimated
Mon 09:06:00 PM 28.3943 118.1775 193° South  Level Estimated
Mon 09:07:00 PM 28.3085 118.1555 193° South  Level Estimated
Mon 09:08:00 PM 28.2227 118.1336 193° South  Level Estimated
Mon 09:09:00 PM 28.1370 118.1118 193° South  Level Estimated
Mon 09:10:00 PM 28.0512 118.0899 193° South  Level Estimated
Mon 09:11:00 PM 27.9655 118.0681 193° South  Level Estimated
Mon 09:12:00 PM 27.8797 118.0464 193° South  Level Estimated
Mon 09:13:00 PM 27.7939 118.0247 193° South  Level Estimated
Mon 09:14:00 PM 27.7081 118.0030 193° South  Level Estimated
Mon 09:15:00 PM 27.7019 118.0014 193° South  Level Estimated
Mon 09:16:00 PM 27.7019 118.0014 348° North  Level Estimated
Mon 09:17:00 PM 27.7019 118.0014 348° North  Level Estimated
Mon 09:18:00 PM 27.7019 118.0014 348° North  Level Estimated
Mon 09:19:00 PM 27.7019 118.0014 348° North  Level Estimated
Mon 09:20:00 PM 27.7019 118.0014 348° North  Level Estimated
Mon 09:21:00 PM 27.7019 118.0014 348° North  Level Estimated
Mon 09:22:00 PM 27.7019 118.0014 348° North  Level Estimated
Mon 09:23:00 PM 27.7019 118.0014 348° North  Level Estimated
Mon 09:24:00 PM 27.7019 118.0014 348° North  Level Estimated
Mon 09:25:00 PM 27.7019 118.0014 348° North  Level Estimated
Mon 09:26:00 PM 27.7019 118.0014 348° North  Level Estimated
Mon 09:27:00 PM 27.7019 118.0014 348° North  Level Estimated
Mon 09:28:00 PM 27.7019 118.0014 348° North  Level Estimated
Mon 09:29:00 PM 27.7019 118.0014 348° North  Level Estimated

Login

Don't have an account? Register now (free) for customized features, flight alerts, and more!